Flight Track Log - Related Links

Times and Time Zones

All times are in EST time to prevent confusion due to time zone crossing. See the N2831T flight status page for this flight to view local times or setup timezone preferences in your user account.

Time Position Orientation Groundspeed Altitude Reporting Facility
EST Latitude Longitude Course Direction KTS MPH feet Rate Location/Type
Mon 11:40:28 AM 38.9786 -76.5156 231° Southwest 89 102 2,100  Level Washington Center
Mon 11:40:56 AM 38.9703 -76.5289 231° Southwest 91 105 2,100 -68 Level Washington Center
Mon 11:41:56 AM 38.9617 -76.5606 251° West 89 102 2,000 99 Descending Washington Center
Mon 11:43:00 AM 38.9930 -76.5742 341° North  Level FlightAware Approximate
Mon 11:50:00 AM 38.9182 -76.8364 299° West  Level Estimated
Mon 11:51:00 AM 38.9482 -76.8465 345° North  Level FlightAware Approximate
Mon 11:52:00 AM 38.9782 -76.8567 345° North  Level FlightAware Approximate
Mon 11:53:00 AM 39.0082 -76.8669 345° North  Level FlightAware Approximate
Mon 11:54:00 AM 39.0382 -76.8771 345° North  Level FlightAware Approximate
Mon 11:55:00 AM 39.0681 -76.8874 345° North  Level FlightAware Approximate
Mon 11:56:00 AM 39.0981 -76.8976 345° North  Level FlightAware Approximate
Mon 11:57:00 AM 39.0791 -76.9291 303° West  Level Estimated
Mon 11:58:00 AM 39.1086 -76.9412 342° North  Level FlightAware Approximate
Mon 11:59:00 AM 39.0884 -76.9715 276° West  Level Estimated
Mon 12:00:00 PM 39.1123 -76.9968 321° Northwest  Level FlightAware Approximate
Mon 12:01:00 PM 39.1363 -77.0223 321° Northwest  Level FlightAware Approximate
Mon 12:02:00 PM 39.1602 -77.0477 321° Northwest  Level FlightAware Approximate
Mon 12:03:00 PM 39.1842 -77.0731 321° Northwest  Level FlightAware Approximate
Mon 12:04:00 PM 39.1593 -77.0971 274° West  Level Estimated
Mon 12:05:00 PM 39.1707 -77.1342 292° West  Level FlightAware Approximate
Mon 12:06:00 PM 39.1822 -77.1714 292° West  Level FlightAware Approximate
Mon 12:07:00 PM 39.1936 -77.2086 292° West  Level FlightAware Approximate
Mon 12:08:00 PM 39.2051 -77.2458 292° West  Level FlightAware Approximate
Mon 12:09:00 PM 39.2165 -77.2831 292° West  Level FlightAware Approximate
Mon 12:10:00 PM 39.2279 -77.3203 292° West  Level FlightAware Approximate
Mon 12:11:00 PM 39.2393 -77.3576 292° West  Level FlightAware Approximate
Mon 12:12:00 PM 39.2506 -77.3948 292° West  Level FlightAware Approximate
Mon 12:13:00 PM 39.2620 -77.4321 292° West  Level FlightAware Approximate
Mon 12:14:00 PM 39.2733 -77.4694 291° West  Level FlightAware Approximate
Mon 12:15:00 PM 39.2847 -77.5067 291° West  Level FlightAware Approximate
Mon 12:16:00 PM 39.2960 -77.5440 291° West  Level FlightAware Approximate
Mon 12:17:00 PM 39.3073 -77.5814 291° West  Level FlightAware Approximate
Mon 12:18:00 PM 39.3186 -77.6187 291° West  Level FlightAware Approximate
Mon 12:19:00 PM 39.2879 -77.6133 160° South  Level Estimated
Mon 12:20:00 PM 39.2587 -77.6268 200° South  Level FlightAware Approximate
Mon 12:21:00 PM 39.2295 -77.6403 200° South  Level FlightAware Approximate
Mon 12:22:00 PM 39.2003 -77.6538 200° South  Level FlightAware Approximate
Mon 12:23:00 PM 39.1711 -77.6673 200° South  Level FlightAware Approximate
Mon 12:24:00 PM 39.1399 -77.6567 165° South  Level Estimated
Mon 12:25:00 PM 39.1087 -77.6461 165° South  Level Estimated
Mon 12:26:00 PM 39.0775 -77.6355 165° South  Level Estimated
Mon 12:27:00 PM 39.0463 -77.6249 165° South  Level Estimated
Mon 12:28:00 PM 39.0151 -77.6143 165° South  Level Estimated
Mon 12:29:00 PM 38.9839 -77.6038 165° South  Level Estimated
Mon 12:30:00 PM 38.9527 -77.5932 165° South  Level Estimated
Mon 12:30:14 PM 38.2936 -76.3694 165° South 122 140 7,000  Level Washington Center
Mon 12:30:50 PM 38.2831 -76.3878 234° Southwest 126 145 4,000 -1,800 Descending Washington Center
Mon 12:31:00 PM 38.9216 -77.5827 165° South  Level Estimated
Mon 12:31:54 PM 38.2642 -76.4194 233° Southwest 116 133 4,000  Level Washington Center
Mon 12:32:00 PM 38.8904 -77.5721 165° South  Level Estimated
Mon 12:32:54 PM 38.2472 -76.4508 236° Southwest 105 121 7,000  Level Washington Center
Mon 12:33:00 PM 38.8592 -77.5616 165° South  Level Estimated
Mon 12:33:48 PM 38.2261 -76.4797 227° Southwest 124 143 4,100  Level Washington Center
Mon 12:34:00 PM 38.8280 -77.5511 165° South  Level Estimated
Mon 12:34:49 PM 38.2031 -76.5111 227° Southwest 117 135 4,100  Level Washington Center
Mon 12:35:00 PM 38.7968 -77.5406 165° South  Level Estimated
Mon 12:35:41 PM 38.1842 -76.5400 230° Southwest 114 131 4,000  Level Washington Center
Mon 12:36:48 PM 38.1631 -76.5742 232° Southwest 114 131 4,100 44 Climbing Washington Center
Mon 12:37:57 PM 38.1397 -76.6081 229° Southwest 114 131 4,100 -48 Level Washington Center
Mon 12:38:52 PM 38.1353 -76.6425 261° West 116 133 4,000 -50 Descending Washington Center
Mon 12:39:58 PM 38.1264 -76.6897 257° West 116 133 4,000  Level Washington Center
Mon 12:40:59 PM 38.1219 -76.7267 261° West 113 130 4,000 -50 Level Washington Center
Mon 12:41:57 PM 38.1153 -76.7661 258° West 112 129 3,900 -50 Descending Washington Center
Mon 12:42:58 PM 38.1067 -76.8056 255° West 109 125 3,900 52 Level Washington Center
Mon 12:43:52 PM 38.1022 -76.8372 260° West 107 123 4,000 97 Climbing Washington Center
Mon 12:45:02 PM 38.0975 -76.8767 261° West 106 122 4,100 46 Climbing Washington Center
Mon 12:46:02 PM 38.0931 -76.9161 262° West 109 125 4,100 -50 Level Washington Center
Mon 12:47:03 PM 38.0861 -76.9556 257° West 111 128 4,000 149 Descending Washington Center
Mon 12:48:03 PM 38.0858 -76.9925 269° West 107 123 4,400 446 Climbing Washington Center
Mon 12:49:04 PM 38.0917 -77.0217 284° West 89 102 4,900 347 Climbing Washington Center
Mon 12:50:04 PM 38.1103 -77.0406 321° Northwest 84 97 5,100 50 Climbing Washington Center
Mon 12:51:05 PM 38.1328 -77.0700 314° West 109 125 5,000 -50 Descending Washington Center
Mon 12:52:05 PM 38.1533 -77.0994 312° West 116 133 5,000  Level Washington Center
Mon 12:53:06 PM 38.1781 -77.1264 319° Northwest 113 130 5,000  Level Washington Center
Mon 12:54:12 PM 38.2025 -77.1614 312° West 113 130 5,000  Level Washington Center
Mon 12:55:13 PM 38.2253 -77.1881 317° Northwest 114 131 5,000 50 Level Washington Center
Mon 12:56:13 PM 38.2500 -77.2125 322° Northwest 112 129 5,100  Climbing Washington Center
Mon 12:57:08 PM 38.2683 -77.2394 311° West 110 127 5,000 -49 Descending Washington Center
Mon 12:58:15 PM 38.2931 -77.2664 319° Northwest 105 121 5,000 -226 Level Washington Center
Mon 12:59:21 PM 38.3156 -77.2933 317° Northwest 108 124 4,500 -451 Descending Washington Center
Mon 01:00:28 PM 38.3442 -77.3283 316° Northwest 119 137 4,000 -198 Descending Washington Center
Mon 01:01:22 PM 38.3647 -77.3500 320° Northwest 118 136 4,100 -55 Climbing Washington Center
Mon 01:02:17 PM 38.3958 -77.3614 344° North 128 147 3,900 -365 Descending Washington Center
Mon 01:03:17 PM 38.4314 -77.3569 North 128 147 3,400 -446 Descending Washington Center
Mon 01:04:18 PM 38.4667 -77.3603 356° North 132 152 3,000 -209 Descending Washington Center
Mon 01:05:12 PM 38.4981 -77.3639 355° North 125 144 3,000 53 Level Washington Center
Mon 01:06:12 PM 38.5333 -77.3672 356° North 127 146 3,100 -149 Climbing Washington Center
Mon 01:07:13 PM 38.5731 -77.3683 359° North 131 151 2,700 -347 Descending Washington Center
Mon 01:08:13 PM 38.6083 -77.3769 349° North 133 153 2,400 -298 Descending Washington Center
Mon 01:09:14 PM 38.6394 -77.3911 340° North 124 143 2,100 169 Descending Washington Center
Mon 01:11:00 PM 38.6615 -77.4246 349° North  Level Estimated
Mon 01:16:31 PM 38.4667 -76.4000 349° North 144 166 3,800  Level Potomac TRACON
Mon 01:17:25 PM 38.4667 -76.4000 180° South 144 166 3,800  Level Potomac TRACON
Mon 01:18:00 PM 38.7167 -77.5000 349° North  Level FlightAware Approximate
Mon 01:19:00 PM 38.7210 -77.5151 349° North  Level Estimated
Mon 01:19:31 PM 38.4667 -76.4000 180° South 144 166 3,800  Level Potomac TRACON
Mon 01:20:00 PM 38.7210 -77.5151 349° North  Level Estimated
Mon 01:21:00 PM 38.7210 -77.5151 349° North  Level Estimated
Mon 01:21:26 PM 38.4667 -76.4000 180° South 144 166 3,800  Level Potomac TRACON
Mon 01:23:27 PM 38.4667 -76.4000 180° South 144 166 3,800  Level Potomac TRACON
Mon 01:25:27 PM 38.4667 -76.4000 180° South 144 166 3,800  Level Potomac TRACON
Mon 01:27:28 PM 38.4667 -76.4000 180° South 144 166 3,800  Level Potomac TRACON
Mon 01:29:29 PM 38.4667 -76.4000 180° South 144 166 3,800  Level Potomac TRACON
Mon 01:31:29 PM 38.4667 -76.4000 180° South 144 166 3,800  Level Potomac TRACON

Login

Don't have an account? Register now (free) for customized features, flight alerts, and more!